createdAt,value
2018-08-18T00:00:40.521Z,19.10
2018-08-18T00:03:09.405Z,19.10
2018-08-18T00:05:38.219Z,19.10
2018-08-18T00:08:06.953Z,19.00
2018-08-18T00:10:35.886Z,19.00
2018-08-18T00:13:04.613Z,19.00
2018-08-18T00:15:33.529Z,19.00
2018-08-18T00:20:53.374Z,18.90
2018-08-18T00:23:22.133Z,18.90
2018-08-18T00:25:50.853Z,18.90
2018-08-18T00:28:23.701Z,18.90
2018-08-18T00:30:52.965Z,18.90
2018-08-18T00:33:28.500Z,18.90
2018-08-18T00:35:57.301Z,18.90
2018-08-18T00:38:26.182Z,18.90
2018-08-18T00:41:00.125Z,18.90
2018-08-18T00:43:28.939Z,18.90
2018-08-18T00:45:57.913Z,18.90
2018-08-18T00:48:26.757Z,18.90
2018-08-18T00:50:55.487Z,18.90
2018-08-18T00:53:24.206Z,18.90
2018-08-18T00:55:55.013Z,18.90
2018-08-18T00:58:31.209Z,18.80
2018-08-18T01:01:04.933Z,18.80
2018-08-18T01:03:42.263Z,18.80
2018-08-18T01:06:19.013Z,18.80
2018-08-18T01:08:48.759Z,18.80
2018-08-18T01:11:17.579Z,18.70
2018-08-18T01:13:46.428Z,18.80
2018-08-18T01:16:15.081Z,18.70
2018-08-18T01:18:43.790Z,18.70
2018-08-18T01:21:12.532Z,18.70
2018-08-18T01:23:41.274Z,18.70
2018-08-18T01:26:10.269Z,18.60
2018-08-18T01:28:39.029Z,18.50
2018-08-18T01:31:15.246Z,18.50
2018-08-18T01:33:44.067Z,18.50
2018-08-18T01:36:12.737Z,18.40
2018-08-18T01:38:41.559Z,18.40
2018-08-18T01:41:16.505Z,18.40
2018-08-18T01:43:46.165Z,18.40
2018-08-18T01:46:17.403Z,18.40
2018-08-18T01:48:48.179Z,18.30
2018-08-18T01:51:19.516Z,18.30
2018-08-18T01:53:48.853Z,18.30
2018-08-18T01:56:18.878Z,18.20
2018-08-18T01:58:47.677Z,18.20
2018-08-18T02:01:16.430Z,18.10
2018-08-18T02:03:45.189Z,18.10
2018-08-18T02:06:15.061Z,18.10
2018-08-18T02:08:56.244Z,18.10
2018-08-18T02:11:26.253Z,18.10
2018-08-18T02:13:56.860Z,18.00
2018-08-18T02:16:27.975Z,18.10
2018-08-18T02:18:56.676Z,18.10
2018-08-18T02:21:29.011Z,18.10
2018-08-18T02:23:59.065Z,18.10
2018-08-18T02:26:39.714Z,18.10
2018-08-18T02:29:08.490Z,18.10
2018-08-18T02:31:37.309Z,18.10
2018-08-18T02:34:06.018Z,18.10
2018-08-18T02:36:34.962Z,18.00
2018-08-18T02:39:04.417Z,18.00
2018-08-18T02:41:33.385Z,18.00
2018-08-18T02:44:02.177Z,18.00
2018-08-18T02:46:35.141Z,18.00
2018-08-18T02:49:04.594Z,18.00
2018-08-18T02:51:33.786Z,18.00
2018-08-18T02:54:03.014Z,18.10
2018-08-18T02:56:37.267Z,18.00
2018-08-18T02:59:21.779Z,18.00
2018-08-18T03:01:50.546Z,18.00
2018-08-18T03:04:19.305Z,18.00
2018-08-18T03:06:48.078Z,18.00
2018-08-18T03:09:16.894Z,18.00
2018-08-18T03:11:45.685Z,17.90
2018-08-18T03:14:14.352Z,17.90
2018-08-18T03:17:05.322Z,17.90
2018-08-18T03:19:34.079Z,17.90
2018-08-18T03:22:03.225Z,17.90
2018-08-18T03:24:32.043Z,17.90
2018-08-18T03:27:00.833Z,17.90
2018-08-18T03:29:30.401Z,18.00
2018-08-18T03:31:59.167Z,17.90
2018-08-18T03:34:27.903Z,18.00
2018-08-18T03:36:56.700Z,17.90
2018-08-18T03:39:41.013Z,17.90
2018-08-18T03:42:09.838Z,17.90
2018-08-18T03:44:43.957Z,17.90
2018-08-18T03:47:12.817Z,17.90
2018-08-18T03:49:41.545Z,17.80
2018-08-18T03:52:10.311Z,17.80
2018-08-18T03:54:39.153Z,17.80
2018-08-18T03:57:07.993Z,17.80
2018-08-18T03:59:36.783Z,17.80
2018-08-18T04:02:05.910Z,17.80
2018-08-18T04:04:35.822Z,17.80
2018-08-18T04:07:06.181Z,17.90
2018-08-18T04:09:36.849Z,17.90
2018-08-18T04:12:07.929Z,17.90
2018-08-18T04:14:43.079Z,17.90
2018-08-18T04:17:24.382Z,17.90
2018-08-18T04:19:53.174Z,18.00
2018-08-18T04:22:22.753Z,18.00
2018-08-18T04:24:51.478Z,18.00
2018-08-18T04:27:35.185Z,18.00
2018-08-18T04:30:05.094Z,17.90
2018-08-18T04:32:45.490Z,17.90
2018-08-18T04:35:14.244Z,17.90
2018-08-18T04:37:52.906Z,17.90
2018-08-18T04:40:22.313Z,17.80
2018-08-18T04:42:51.231Z,17.80
2018-08-18T04:45:21.133Z,17.80
2018-08-18T04:47:49.854Z,17.80
2018-08-18T04:50:18.742Z,17.80
2018-08-18T04:52:47.457Z,17.80
2018-08-18T04:55:17.990Z,17.80
2018-08-18T04:57:46.694Z,17.80
2018-08-18T05:00:15.963Z,17.80
2018-08-18T05:02:50.162Z,17.80
2018-08-18T05:05:20.628Z,17.90
2018-08-18T05:07:50.389Z,17.90
2018-08-18T05:10:20.389Z,17.90
2018-08-18T05:12:49.205Z,17.90
2018-08-18T05:15:19.621Z,17.90
2018-08-18T05:17:49.665Z,17.90
2018-08-18T05:20:19.845Z,17.90
2018-08-18T05:22:48.639Z,17.90
2018-08-18T05:25:18.574Z,18.00
2018-08-18T05:27:47.385Z,18.00
2018-08-18T05:30:16.156Z,18.00
2018-08-18T05:32:44.902Z,18.00
2018-08-18T05:35:13.668Z,18.10
2018-08-18T05:37:42.433Z,18.10
2018-08-18T05:43:03.080Z,18.10
2018-08-18T05:45:32.857Z,18.20
2018-08-18T05:48:01.569Z,18.30
2018-08-18T05:50:34.294Z,18.40
2018-08-18T05:55:54.508Z,18.40
2018-08-18T05:58:25.353Z,18.50
2018-08-18T06:00:58.038Z,18.50
2018-08-18T06:03:44.966Z,18.60
2018-08-18T06:06:13.810Z,18.60
2018-08-18T06:08:42.498Z,18.70
2018-08-18T06:11:11.208Z,18.70
2018-08-18T06:13:52.642Z,18.70
2018-08-18T06:16:21.365Z,18.70
2018-08-18T06:18:50.163Z,18.70
2018-08-18T06:21:18.886Z,18.80
2018-08-18T06:23:47.782Z,18.90
2018-08-18T06:26:18.743Z,19.00
2018-08-18T06:28:47.618Z,19.10
2018-08-18T06:31:35.210Z,19.10
2018-08-18T06:34:04.003Z,19.10
2018-08-18T06:36:32.686Z,19.20
2018-08-18T06:39:01.469Z,19.20
2018-08-18T06:41:30.290Z,19.20
2018-08-18T06:44:06.741Z,19.20
2018-08-18T06:46:35.499Z,19.20
2018-08-18T06:49:04.318Z,19.30
2018-08-18T06:51:36.325Z,19.30
2018-08-18T06:54:05.137Z,19.30
2018-08-18T06:56:33.972Z,19.40
2018-08-18T06:59:10.117Z,19.50
2018-08-18T07:01:38.942Z,19.50
2018-08-18T07:04:09.698Z,19.60
2018-08-18T07:06:38.541Z,19.70
2018-08-18T07:09:11.474Z,19.70
2018-08-18T07:11:40.291Z,19.70
2018-08-18T07:14:09.027Z,19.80
2018-08-18T07:16:37.728Z,19.80
2018-08-18T07:19:13.163Z,19.90
2018-08-18T07:21:58.641Z,20.00
2018-08-18T07:24:36.206Z,20.00
2018-08-18T07:27:05.329Z,20.10
2018-08-18T07:29:46.578Z,20.20
2018-08-18T07:32:15.501Z,20.20
2018-08-18T07:34:44.262Z,20.30
2018-08-18T07:37:13.143Z,20.30
2018-08-18T07:39:51.014Z,20.40
2018-08-18T07:42:20.938Z,20.30
2018-08-18T07:44:49.641Z,20.30
2018-08-18T07:47:22.595Z,20.30
2018-08-18T07:49:51.340Z,20.20
2018-08-18T07:52:27.098Z,20.30
2018-08-18T07:54:55.873Z,20.30
2018-08-18T07:57:24.620Z,20.40
2018-08-18T07:59:55.549Z,20.40
2018-08-18T08:02:24.757Z,20.60
2018-08-18T08:04:53.500Z,20.70
2018-08-18T08:07:23.292Z,20.70
2018-08-18T08:09:52.038Z,20.80
2018-08-18T08:12:20.856Z,21.00
2018-08-18T08:14:49.657Z,21.10
2018-08-18T08:17:18.541Z,21.20
2018-08-18T08:19:47.329Z,21.40
2018-08-18T08:22:16.160Z,21.40
2018-08-18T08:24:45.006Z,21.30
2018-08-18T08:27:14.206Z,21.30
2018-08-18T08:29:42.976Z,21.30
2018-08-18T08:32:11.829Z,21.40
2018-08-18T08:34:48.178Z,21.50
2018-08-18T08:37:17.258Z,21.60
2018-08-18T08:39:46.715Z,21.60
2018-08-18T08:42:23.203Z,21.60
2018-08-18T08:44:52.926Z,21.50
2018-08-18T08:47:21.689Z,21.60
2018-08-18T08:49:51.018Z,21.60
2018-08-18T08:52:20.005Z,21.50
2018-08-18T08:54:48.864Z,21.50
2018-08-18T08:57:17.612Z,21.50
2018-08-18T08:59:46.566Z,21.60
2018-08-18T09:02:15.377Z,21.60
2018-08-18T09:04:44.109Z,21.70
2018-08-18T09:07:12.942Z,21.70
2018-08-18T09:09:41.651Z,21.80
2018-08-18T09:12:10.606Z,21.80
2018-08-18T09:14:39.310Z,21.90
2018-08-18T09:17:08.182Z,22.00
2018-08-18T09:19:36.954Z,22.00
2018-08-18T09:22:05.699Z,22.10
2018-08-18T09:24:34.586Z,22.10
2018-08-18T09:27:05.009Z,22.20
2018-08-18T09:29:39.209Z,22.30
2018-08-18T09:32:07.961Z,22.30
2018-08-18T09:34:42.304Z,22.50
2018-08-18T09:37:10.992Z,22.50
2018-08-18T09:39:39.709Z,22.50
2018-08-18T09:42:11.199Z,22.60
2018-08-18T09:44:40.854Z,22.60
2018-08-18T09:47:09.705Z,22.70
2018-08-18T09:49:38.424Z,22.70
2018-08-18T09:52:08.588Z,22.70
2018-08-18T09:54:37.294Z,22.80
2018-08-18T09:57:06.338Z,22.90
2018-08-18T09:59:35.333Z,22.90
2018-08-18T10:02:04.330Z,23.00
2018-08-18T10:04:33.190Z,23.10
2018-08-18T10:07:01.917Z,23.10
2018-08-18T10:09:30.835Z,23.30
2018-08-18T10:12:04.733Z,23.30
2018-08-18T10:14:33.460Z,23.40
2018-08-18T10:17:02.077Z,23.30
2018-08-18T10:19:31.544Z,23.30
2018-08-18T10:22:01.013Z,23.40
2018-08-18T10:24:29.851Z,23.50
2018-08-18T10:27:18.954Z,23.50
2018-08-18T10:29:47.580Z,23.50
2018-08-18T10:32:16.489Z,23.60
2018-08-18T10:34:45.325Z,23.70
2018-08-18T10:37:14.465Z,23.70
2018-08-18T10:39:50.601Z,23.70
2018-08-18T10:42:24.765Z,23.70
2018-08-18T10:45:01.181Z,23.80
2018-08-18T10:47:29.966Z,23.80
2018-08-18T10:50:12.394Z,23.90
2018-08-18T10:52:52.710Z,23.90
2018-08-18T10:55:21.488Z,23.90
2018-08-18T10:57:56.644Z,23.90
2018-08-18T11:00:26.926Z,24.00
2018-08-18T11:02:57.720Z,24.00
2018-08-18T11:05:27.197Z,24.10
2018-08-18T11:08:01.735Z,24.20
2018-08-18T11:10:39.875Z,24.30
2018-08-18T11:13:08.797Z,24.40
2018-08-18T11:15:37.749Z,24.30
2018-08-18T11:18:06.625Z,24.30
2018-08-18T11:20:44.284Z,24.30
2018-08-18T11:23:14.634Z,24.30
2018-08-18T11:25:51.739Z,24.40
2018-08-18T11:28:21.382Z,24.30
2018-08-18T11:30:51.461Z,24.40
2018-08-18T11:33:34.399Z,24.40
2018-08-18T11:36:04.000Z,24.50
2018-08-18T11:38:33.284Z,24.50
2018-08-18T11:41:02.052Z,24.50
2018-08-18T11:43:35.505Z,24.70
2018-08-18T11:46:04.276Z,24.80
2018-08-18T11:48:35.013Z,24.80
2018-08-18T11:51:03.873Z,25.00
2018-08-18T11:53:32.739Z,25.00
2018-08-18T11:56:01.630Z,25.10
2018-08-18T11:58:30.354Z,25.20
2018-08-18T12:01:18.897Z,25.10
2018-08-18T12:03:47.800Z,25.20
2018-08-18T12:06:18.872Z,25.20
2018-08-18T12:08:53.782Z,25.20
2018-08-18T12:11:22.481Z,25.20
2018-08-18T12:13:53.478Z,25.30
2018-08-18T12:16:22.249Z,25.40
2018-08-18T12:18:51.017Z,25.40
2018-08-18T12:21:20.975Z,25.50
2018-08-18T12:23:49.806Z,25.60
2018-08-18T12:26:20.706Z,25.60
2018-08-18T12:28:54.065Z,25.70
2018-08-18T12:31:35.284Z,25.70
2018-08-18T12:34:04.317Z,25.80
2018-08-18T12:36:33.256Z,25.80
2018-08-18T12:39:01.954Z,25.70
2018-08-18T12:41:31.724Z,25.80
2018-08-18T12:44:00.669Z,25.80
2018-08-18T12:46:40.997Z,25.90
2018-08-18T12:49:09.753Z,26.00
2018-08-18T12:51:40.766Z,25.90
2018-08-18T12:54:09.469Z,26.10
2018-08-18T12:56:38.279Z,26.00
2018-08-18T12:59:07.231Z,26.00
2018-08-18T13:01:46.282Z,26.10
2018-08-18T13:04:16.514Z,26.10
2018-08-18T13:06:46.405Z,26.20
2018-08-18T13:09:19.297Z,26.20
2018-08-18T13:11:58.305Z,26.30
2018-08-18T13:14:28.994Z,26.30
2018-08-18T13:16:57.835Z,26.40
2018-08-18T13:19:35.933Z,26.50
2018-08-18T13:22:05.749Z,26.60
2018-08-18T13:24:34.723Z,26.70
2018-08-18T13:27:03.618Z,26.70
2018-08-18T13:29:35.582Z,26.70
2018-08-18T13:32:13.081Z,26.70
2018-08-18T13:34:41.956Z,26.80
2018-08-18T13:37:10.733Z,26.70
2018-08-18T13:39:46.223Z,26.80
2018-08-18T13:42:22.169Z,26.90
2018-08-18T13:44:52.185Z,27.00
2018-08-18T13:47:21.205Z,27.00
2018-08-18T13:49:55.909Z,27.00
2018-08-18T13:52:24.934Z,27.00
2018-08-18T13:54:54.358Z,27.20
2018-08-18T13:57:32.742Z,27.30
2018-08-18T14:00:01.783Z,27.40
2018-08-18T14:02:30.767Z,27.50
2018-08-18T14:05:00.794Z,27.40
2018-08-18T14:07:30.393Z,27.40
2018-08-18T14:10:01.461Z,27.50
2018-08-18T14:12:30.362Z,27.50
2018-08-18T14:14:59.177Z,27.50
2018-08-18T14:17:27.984Z,27.60
2018-08-18T14:20:01.718Z,27.60
2018-08-18T14:22:30.484Z,27.70
2018-08-18T14:24:59.194Z,27.70
2018-08-18T14:27:32.194Z,27.70
2018-08-18T14:30:01.021Z,27.90
2018-08-18T14:32:33.930Z,27.90
2018-08-18T14:35:05.278Z,28.00
2018-08-18T14:37:38.497Z,28.00
2018-08-18T14:40:11.161Z,28.10
2018-08-18T14:42:39.880Z,28.20
2018-08-18T14:45:10.834Z,28.30
2018-08-18T14:47:39.576Z,28.40
2018-08-18T14:50:26.910Z,28.50
2018-08-18T14:52:55.703Z,28.60
2018-08-18T14:55:24.490Z,28.60
2018-08-18T14:57:58.657Z,28.50
2018-08-18T15:00:39.858Z,28.40
2018-08-18T15:03:08.857Z,28.40
2018-08-18T15:05:43.381Z,28.40
2018-08-18T15:08:12.093Z,28.40
2018-08-18T15:10:47.617Z,28.30
2018-08-18T15:13:16.741Z,28.30
2018-08-18T15:15:45.648Z,28.30
2018-08-18T15:18:18.744Z,28.30
2018-08-18T15:20:47.758Z,28.40
2018-08-18T15:23:17.501Z,28.60
2018-08-18T15:25:48.583Z,28.70
2018-08-18T15:28:18.586Z,28.70
2018-08-18T15:30:49.622Z,28.80
2018-08-18T15:33:20.298Z,29.10
2018-08-18T15:35:49.205Z,29.50
2018-08-18T15:38:34.627Z,29.90
2018-08-18T15:41:03.385Z,30.40
2018-08-18T15:43:32.282Z,31.20
2018-08-18T15:46:07.830Z,31.70
2018-08-18T15:48:39.568Z,32.20
2018-08-18T15:51:08.382Z,32.50
2018-08-18T15:53:52.661Z,33.10
2018-08-18T15:56:29.130Z,33.60
2018-08-18T15:58:58.537Z,34.00
2018-08-18T16:01:28.510Z,33.80
2018-08-18T16:04:02.629Z,33.00
2018-08-18T16:06:32.206Z,32.00
2018-08-18T16:09:00.975Z,31.10
2018-08-18T16:11:29.766Z,30.50
2018-08-18T16:13:58.734Z,30.00
2018-08-18T16:16:29.788Z,29.70
2018-08-18T16:19:04.000Z,29.40
2018-08-18T16:21:33.885Z,29.20
2018-08-18T16:24:02.762Z,29.10
2018-08-18T16:26:31.476Z,28.90
2018-08-18T16:29:00.390Z,28.80
2018-08-18T16:31:29.083Z,28.70
2018-08-18T16:34:02.019Z,28.60
2018-08-18T16:36:34.950Z,28.60
2018-08-18T16:39:03.827Z,28.50
2018-08-18T16:41:32.638Z,28.50
2018-08-18T16:44:01.529Z,28.50
2018-08-18T16:46:31.413Z,28.40
2018-08-18T16:49:00.261Z,28.30
2018-08-18T16:51:30.181Z,28.20
2018-08-18T16:54:15.918Z,28.10
2018-08-18T16:56:44.873Z,28.10
2018-08-18T16:59:23.432Z,28.10
2018-08-18T17:01:52.265Z,28.20
2018-08-18T17:04:28.417Z,28.50
2018-08-18T17:06:57.226Z,29.40
2018-08-18T17:09:42.216Z,30.20
2018-08-18T17:12:18.803Z,30.90
2018-08-18T17:14:51.801Z,31.40
2018-08-18T17:17:23.054Z,32.00
2018-08-18T17:19:51.918Z,32.60
2018-08-18T17:22:20.796Z,32.90
2018-08-18T17:24:49.642Z,33.10
2018-08-18T17:27:18.377Z,33.30
2018-08-18T17:29:49.027Z,33.20
2018-08-18T17:32:17.750Z,33.10
2018-08-18T17:34:46.525Z,32.90
2018-08-18T17:37:30.909Z,33.10
2018-08-18T17:39:59.735Z,33.30
2018-08-18T17:42:28.595Z,33.10
2018-08-18T17:45:06.400Z,32.40
2018-08-18T17:47:39.364Z,32.10
2018-08-18T17:50:08.202Z,32.60
2018-08-18T17:52:37.006Z,33.00
2018-08-18T17:55:10.297Z,33.30
2018-08-18T17:57:39.697Z,33.30
2018-08-18T18:00:13.875Z,33.20
2018-08-18T18:02:48.017Z,33.00
2018-08-18T18:05:23.078Z,32.80
2018-08-18T18:08:09.472Z,32.50
2018-08-18T18:10:38.841Z,31.90
2018-08-18T18:13:15.061Z,31.40
2018-08-18T18:15:44.932Z,31.20
2018-08-18T18:18:15.566Z,31.20
2018-08-18T18:20:47.588Z,30.90
2018-08-18T18:23:16.965Z,30.10
2018-08-18T18:25:55.669Z,29.20
2018-08-18T18:28:24.532Z,28.40
2018-08-18T18:30:55.465Z,27.60
2018-08-18T18:33:24.404Z,27.10
2018-08-18T18:36:07.520Z,26.70
2018-08-18T18:38:52.579Z,26.40
2018-08-18T18:41:21.319Z,26.00
2018-08-18T18:43:58.067Z,25.80
2018-08-18T18:46:26.872Z,25.60
2018-08-18T18:48:56.039Z,25.40
2018-08-18T18:51:29.824Z,25.20
2018-08-18T18:53:58.748Z,25.10
2018-08-18T18:56:27.563Z,25.00
2018-08-18T18:58:56.397Z,24.80
2018-08-18T19:01:25.405Z,24.70
2018-08-18T19:03:54.297Z,24.60
2018-08-18T19:06:23.136Z,24.50
2018-08-18T19:09:00.497Z,24.30
2018-08-18T19:11:29.309Z,24.20
2018-08-18T19:13:59.046Z,24.10
2018-08-18T19:16:28.017Z,24.00
2018-08-18T19:18:56.849Z,23.90
2018-08-18T19:21:30.229Z,23.80
2018-08-18T19:24:03.597Z,23.70
2018-08-18T19:26:47.115Z,23.70
2018-08-18T19:29:17.471Z,23.60
2018-08-18T19:31:53.962Z,23.50
2018-08-18T19:37:19.357Z,23.40
2018-08-18T19:39:49.536Z,23.30
2018-08-18T19:42:19.747Z,23.20
2018-08-18T19:44:50.939Z,23.10
2018-08-18T19:47:26.029Z,23.00
2018-08-18T19:49:55.986Z,22.90
2018-08-18T19:52:26.632Z,22.80
2018-08-18T19:54:55.729Z,22.70
2018-08-18T19:57:30.049Z,22.50
2018-08-18T20:00:34.896Z,22.40
2018-08-18T20:05:54.913Z,22.30
2018-08-18T20:08:25.007Z,22.10
2018-08-18T20:11:01.249Z,22.00
2018-08-18T20:13:31.270Z,21.90
2018-08-18T20:16:01.497Z,21.80
2018-08-18T20:18:31.504Z,21.70
2018-08-18T20:21:00.579Z,21.70
2018-08-18T20:23:29.313Z,21.60
2018-08-18T20:25:58.161Z,21.50
2018-08-18T20:28:27.021Z,21.50
2018-08-18T20:30:55.805Z,21.40
2018-08-18T20:33:24.601Z,21.30
2018-08-18T20:38:49.691Z,21.20
2018-08-18T20:41:18.502Z,21.10
2018-08-18T20:43:48.054Z,21.00
2018-08-18T20:46:16.940Z,21.00
2018-08-18T20:48:45.890Z,20.90
2018-08-18T20:51:20.991Z,20.80
2018-08-18T20:53:49.868Z,20.80
2018-08-18T20:56:18.483Z,20.70
2018-08-18T20:58:47.343Z,20.60
2018-08-18T21:01:17.267Z,20.60
2018-08-18T21:03:48.416Z,20.50
2018-08-18T21:06:18.207Z,20.50
2018-08-18T21:08:47.185Z,20.40
2018-08-18T21:11:16.549Z,20.40
2018-08-18T21:13:49.746Z,20.30
2018-08-18T21:16:19.378Z,20.20
2018-08-18T21:18:48.231Z,20.20
2018-08-18T21:21:33.342Z,20.10
2018-08-18T21:24:02.117Z,20.10
2018-08-18T21:26:31.174Z,20.00
2018-08-18T21:29:00.123Z,19.90
2018-08-18T21:31:32.949Z,19.90
2018-08-18T21:34:02.948Z,19.90
2018-08-18T21:36:32.340Z,19.80
2018-08-18T21:39:03.609Z,19.70
2018-08-18T21:41:36.707Z,19.60
2018-08-18T21:44:18.510Z,19.60
2018-08-18T21:46:47.506Z,19.60
2018-08-18T21:49:28.068Z,19.50
2018-08-18T21:52:30.671Z,19.50
2018-08-18T21:55:23.839Z,19.40
2018-08-18T21:57:58.177Z,19.30
2018-08-18T22:00:32.170Z,19.10
2018-08-18T22:03:00.946Z,19.00
2018-08-18T22:05:31.849Z,19.00
2018-08-18T22:13:59.330Z,18.90
2018-08-18T22:16:40.075Z,18.90
2018-08-18T22:22:27.685Z,18.80
2018-08-18T22:24:57.135Z,18.80
2018-08-18T22:27:25.883Z,18.80
2018-08-18T22:29:54.825Z,18.70
2018-08-18T22:32:24.980Z,18.60
2018-08-18T22:34:53.813Z,18.60
2018-08-18T22:37:24.965Z,18.60
2018-08-18T22:39:59.875Z,18.50
2018-08-18T22:42:28.953Z,18.50
2018-08-18T22:45:02.513Z,18.40
2018-08-18T22:47:31.447Z,18.30
2018-08-18T22:50:00.297Z,18.30
2018-08-18T22:52:29.114Z,18.30
2018-08-18T22:54:57.934Z,18.20
2018-08-18T22:57:26.781Z,18.20
2018-08-18T23:00:03.522Z,18.20
2018-08-18T23:02:33.656Z,18.10
2018-08-18T23:05:02.646Z,18.10
2018-08-18T23:07:31.469Z,18.00
2018-08-18T23:10:11.142Z,18.00
2018-08-18T23:15:38.248Z,17.90
2018-08-18T23:18:23.519Z,17.90
2018-08-18T23:21:31.012Z,17.80
2018-08-18T23:24:21.626Z,17.80
2018-08-18T23:29:42.038Z,17.70
2018-08-18T23:32:25.822Z,17.70
2018-08-18T23:35:02.845Z,17.70
2018-08-18T23:37:34.726Z,17.60
2018-08-18T23:40:03.398Z,17.60
2018-08-18T23:42:53.919Z,17.50
2018-08-18T23:45:23.199Z,17.50
2018-08-18T23:50:44.780Z,17.40
2018-08-18T23:53:16.364Z,17.40
2018-08-18T23:56:00.380Z,17.30
2018-08-18T23:58:30.285Z,17.30
